РПИ Москва

Региональный центр Единой системы организации воздушного движения VATSIM Москва отвечает за полеты воздушных судов над большей частью территории центральной России на общей площади более 700 тысяч квадратных километров – от Рыбинского водохранилища до Воронежа и Белгорода с севера на юг и от границы с Беларусью до Нижнего Новгорода с запада на восток.

Ежедневно в зоне ответственности Московского центра выполняются тысячи полетов, в том числе множество международных транзитных рейсов.

Общая протяженность воздушных трасс составляет более 35000 км, а количество различных аэродромов гражданской и ведомственной авиации насчитывает более 100.

Московский узловой диспетчерский район (МУДР), также находящийся на территории регионального центра, включает в себя три крупнейших аэропорта России – московские Шереметьево, Внуково и Домодедово.

Это самое сложное и загруженное воздушное пространство России и СНГ. Московские аэропорты имеют схемы Point Merge System, упрощающие построение очередности захода на посадку, а наличие большого количество запретных зон и зон ограничений полетов требует от диспетчеров высокого уровня подготовки.

В реальной жизни за обеспечение безопасности полетов на этой огромной территории несут ответственность 27 секторов районного диспетчерского центра и 22 сектора Подхода и Круга аэроузлового диспетчерского центра. На вышках дежурят диспетчеры 11 аэродромных диспетчерских центров, управляющие самолетами на взлете и посадке.

В VATSIM мы также имеем возможность разъединять при необходимости различные сектора.

Используйте интерактивную карту по ссылке в ваших полетах, если видите в работе несколько позиций Москва-Контроль.

С 2020 года западная часть территории России, в том числе Москва, перешла на выполнение полетов на высотах в футах по давлению QNH. В МУДР установлена единая высота перехода для всех аэродромов 10000 футов, а эшелон перехода меняется от FL110 до FL130 в зависимости от QNH аэродрома Внуково, как самого высокорасположенного.

Помимо аэропортов «московской тройки», в МУДР находятся аэродромы государственной и экспериментальной авиации, такие как Остафьево, Раменское, Чкаловский.

Малая авиация выполняет полеты с бесчисленного множества аэродромов и посадочных площадок. Многие из них хорошо реализованы. На нашей карте вы найдете ссылки на сценарии для различных симуляторов.

Для симулятора X-Plane 11 команда x-flight подготовила прекрасную фотоподложку, покрывающую почти весь МУДР. Найти ее вы можете по ссылке.

Для любителей симуляторов от Lockheed Martin и Microsoft существуют также дополнения Moscow City X для Prepar3D всех версий и Moscow Landmarks для MSFS.

В районе ответственности регионального центра находятся еще восемь международных аэропортов: Нижний Новгород, Воронеж, Белгород, Ярославль, Брянск, Калуга, Курск и Липецк.

Лого Москва
Руководство

Ivan Skatov

Начальник РегЦ ЕС ОрВД (Москва)

Ilya Pyankov

Начальник АузДЦ ЕС ОрВД (Москва)

Nick Smirnov

Ивент-менеджер
Контакты

Инструкторы РПИ
Alexander Mikhin (Instructor)
Alexander Petrenko (Instructor)
Alexey Dobronravov (Instructor)
Anton Myglan (Senior Instructor)
Artem Morozov * (Controller)
Artem Smorchkov (Instructor)
Dmitry Markus (Instructor)
Ilya Pyankov (Instructor)
Ivan Buev (Instructor)
Ivan Skatov (Instructor)
Matvey Safyannikov (Instructor)
Maxim Tsygankov (Instructor)
Nick Smirnov (Instructor)
Yulia Goryacheva (Instructor)
Входит в состав
Западная Россия

Диспетчеры РПИ

Диспетчер Рейтинг Допуски *
Alexander Mikhin Instructor UUWV_CTR
Alexander Petrenko Instructor UUWV_CTR
Alexey Dobronravov Instructor UUWV_CTR
Artem Morozov Controller UUWV_CTR
Artem Smorchkov Instructor UUWV_CTR
Dmitry Markus Instructor UUWV_CTR
George Kalandadze Controller UUWV_CTR
Ivan Buev Instructor UUWV_CTR
Ivan Skatov Instructor UUWV_CTR
Masha Stanchenko Unknown UUWV_CTR
Maxim Finashko Controller UUWV_CTR
Maxim Grechishkin Senior Student UUWV_CTR  *, MSK_APP(UUDD+UUEE+UUWW)
Maxim Tsygankov Instructor UUWV_CTR
Michael Loyuk Controller UUWV_CTR
Nick Smirnov Instructor UUWV_CTR
Robert Farber Controller UUWV_CTR
Sergey Kovalenko Controller UUWV_CTR
Vladimir Anisimov Senior Controller UUWV_CTR
Vyacheslav Neklyudov Controller UUWV_CTR
Yulia Goryacheva Instructor UUWV_CTR
Yury Koryagin Instructor UUWV_CTR
Aleksey Podlesny Student UUEE_N_GND, UUEE_S_GND, UUEE_GND
Alexander Chaykin Student UUWW_GND
Alexander Ryabchuk Student UUEE_GND, UUEE_N_GND, UUEE_S_GND
Alexsey Gorbunov Unknown UUDD_GND
Andrey Makarov Student UUWW_GND
Andrey Timofeev Student UUDD_GND
Anna Pukhlyakova Student UUWW_GND
Anton Beshenov Student UUEE_S_GND, UUEE_N_GND, UUEE_GND
Artem Alexeev Student UUEE_TWR*, UUEE_N_TWR*, UUEE_GND, UUEE_N_GND, UUEE_S_GND, UUEE_S_TWR*
Artem Kalashnikov Student UUWW_TWR*, UUWW_GND
Artem Pustovoi Student 2 UUWW_TWR
Dmitrii Terekhov Student UUWW_GND
Egor Goriachev Student 2 UUDD_TWR, UUEE_S_TWR, UUEE_N_TWR, UUEE_TWR, UUWW_APP*, UUWW_TWR, UUWW_F_APP*, UUWW_DEP*
Egor Migalkin Student UUWW_GND
Egor Petrov Student UUDD_GND
Evgeniy Emelynov Student UUEE_S_GND, UUEE_GND, UUEE_N_GND
Gleb Ishmuratov Student UUDD_GND
Gleb Smolkov Student 2 UUEE_DEP*, UUEE_F_APP*, UUEE_APP*, UUEE_S_TWR, UUEE_N_TWR, UUEE_TWR
Ivan Baranov Student UUEE_TWR*, UUEE_N_TWR*, UUEE_S_TWR*, UUEE_GND, UUEE_N_GND, UUEE_S_GND
Ivan Piskovsky Unknown UUWW_GND
Kirill Belskiy Student 2 UUEE_APP*, UUEE_F_APP*, UUEE_DEP*
Kirill Korchagin Student UUWW_GND
Kirill Kudryavtsev Student 2 UUWW_TWR
Kseniia Dedukh Unknown UUWW_DEP, UUWW_F_APP, UUWW_APP
Maksim Otto Instructor MSK_APP(UUEE+UUWW+UUDD)
Maxim Kalalenskiy Student 2 UUWW_TWR!!!
Maxim Khromtsov Controller MSK_APP(UUEE+UUWW+UUDD)
Mihail Mihailov Senior Student MSK_APP(UUEE+UUDD+UUWW)
Nikita Filatov Student UUWW_GND
Nikita Ivlev Student 2 UUDD_TWR, UUEE_APP*, UUEE_F_APP*, UUEE_DEP*
Nikita Khomich Student UUEE_S_GND, UUEE_N_GND, UUEE_GND, UUEE_TWR*, UUEE_S_TWR*, UUEE_N_TWR*
Nikita Kuhtenkov Student 2 UUEE_S_TWR, UUEE_N_TWR, UUEE_TWR
Nikita Levin Senior Student MSK_APP(UUEE+UUDD+UUWW)
Nikita Mezenov Student UUWW_GND
Oleg Alov Controller UUDD_DEP, UUDD_F_APP, UUDD_APP, UUEE_DEP, UUEE_F_APP, UUEE_APP, UUWW_APP, UUWW_F_APP, UUWW_DEP
Pavel Moskvin Student 2 UUEE_APP*, UUEE_DEP*, UUEE_F_APP*
Pavel Sergienko Senior Student UUML_TWR
Petr Efimov Student UUEE_S_GND, UUEE_N_GND, UUEE_GND
Petr Koreshkov Student UUEE_S_GND, UUEE_N_GND, UUEE_GND
Rustam Kilichev Student UUEE_GND, UUEE_N_GND, UUEE_S_GND
Sergey Bogdanov Student UUDD_GND, UUDD_TWR*
Sergey Isaev Student 2 MSK_APP(UUEE+UUWW+UUDD)
Sergey Milyaev Student UUDD_GND
Stanley Yorke Controller UUBW_APP, UUWW_DEP, UUWW_F_APP, UUWW_APP
Yury Kompaniychenko Student 2 UUML_TWR!!!
Zakhar Grinin Student UUDD_GND

Аэропорты РПИ

ICAO Город Название Погода
UUWW Москва Внуково UUWW 190630Z 28005MPS 9999 FEW030 21/14 Q1014 R24/000070 NOSIG
UUDD Москва Домодедово UUDD 190630Z 32006MPS 290V350 9999 FEW034 22/14 Q1014 R32L/CLRD60 NOSIG
UUBW Москва Жуковский UUBW 190630Z 29006MPS CAVOK 22/12 Q1014 R30/010060 NOSIG RMK QFE750
UUMU Москва Чкаловский
UUEE Москва Шереметьево UUEE 190630Z 29005MPS 250V320 9999 FEW026 21/14 Q1014 WS R24L WS R24C R24L/CLRD62 R24C/CLRD62 NOSIG
UUOB Белгород Белгород UUOB 190630Z 23003MPS CAVOK 25/16 Q1020 R11/010070 NOSIG
UUBP Брянск Брянск
UUOO Воронеж Воронеж UUOO 190630Z 29005MPS CAVOK 24/15 Q1017 R30/010070 NOSIG RMK QFE749
UUBI Иваново Иваново
UUBC Калуга Калуга UUBC 190630Z 26003MPS 200V330 CAVOK 23/16 Q1016 R31/CLRD60 NOSIG RMK QFE745/0993
UUOK Курск Курск UUOK 190630Z 25004MPS 220V290 CAVOK 24/17 Q1018 R12/090060 NOSIG RMK QFE745/0994
UUMO Москва Остафьево
UWGG Нижний Новгород Стригино UWGG 190630Z 28005MPS 9999 -RA OVC013 18/16 Q1007 R18L/090070 NOSIG
UUDL Ярославль Туношна UUDL 190630Z 28006MPS 9999 BKN026 20/15 Q1009 R23/010060 NOSIG RMK QFE749
UUMW Ватулино Ватулино
UUML Воскресенск Северка